메인 페이지
METAR-TAF:

METAR-TAF

공항 :

팔마데마요르카, 스페인

위도: 39-33N, 경도: 002-44E, 고도: 4m

현재 날씨관측

예보는 29분 전, 21:30시(UTC)에 발표되었습니다.
동북동6kt
온도 19°C
습도 83%
기압 1021 hPa
시정 10km 이상
고도 3000ft 상공 구름 조금

METAR: LEPA 282130Z 07006KT 9999 FEW030 19/16 Q1021 NOSIG

시각: 23:59 (21:59 UTC)

예보

예보는 4 시간 14분 전, 17:45시(UTC)에 발표되었습니다.
예보 대상 시간: 28일 18시부터 29일 18시까지 (UTC)
서남서8kt
시정 10km 이상
고도 3500ft 상공 구름 조금
전환 중
28일 19시부터 28일 22시까지 (UTC)
여러 방향의 바람 3kt
전환 중
29일 09시부터 29일 11시까지 (UTC)
남서10kt

TAF: LEPA 281745Z 2818/2918 25008KT 9999 FEW035 TX26/2914Z TN14/2906Z BECMG 2819/2822 VRB03KT BECMG 2909/2911 23010KT

4,000개 이상의 공항 관측 자료 및 예보 (METAR 및 TAF 보고).

지도상에서 검색 가능한 기상관측소가 노란 점과 빨간 점으로 표시되어 있습니다.

기상관측소 명을 보려면 표시 위로 마우스를 이동하세요.

날씨 관측과 예보를 보려면 클릭하세요.

지도 변경 : 확대하려면 엑스 표시가 있는 녹색 버튼, 축소하려면 빼기 표시가 있는 녹색 버튼, 다음 페이지의 지도를 보려면 녹색 화살표를 클릭하세요.


METAR-TAF: